Station: Mornington Island Airport  

  Atmospheric Gas Attenuation - ITU Rec 676-11   ----------------- dB/100km -----------------
Date Time Temp RH % AH g/m3 Dew Point Wind Direction Speed kph Gust kph Barometer mB Rainfall Since 9am 24GHz 47GHz 76GHz 122GHz 134GHz 241GHz
08/05 12:30 26.9 54 13.82 16.8 26 41 1013.7 0 29.9 30.2 53.1 140.0 146.4 508.1
08/05 12:20 26.3 54 13.37 16.3 28 33 1013.8 0 29.0 29.7 51.7 136.3 141.7 491.5
08/05 12:10 26.5 53 13.27 16.4 24 37 1014.1 0 28.7 29.5 51.2 134.9 140.1 485.8
08/05 12:00 26.5 53 13.27 16.4 26 48 1014.2 0 28.7 29.5 51.2 134.9 140.1 485.9
08/05 11:50 25.9 54 13.07 15.9 33 41 1014.3 0 28.4 29.4 50.8 133.9 138.6 480.5
08/05 11:40 26.2 54 13.29 16.2 26 41 1014.5 0 28.8 29.6 51.5 135.7 140.9 488.7
08/05 11:30 25.9 54 13.07 15.9 26 39 1014.6 0 28.4 29.4 50.8 133.9 138.6 480.6
08/05 11:20 25.7 53 12.69 15.4 26 35 1014.6 0 27.6 28.8 49.4 130.2 134.1 464.7
08/05 11:10 25.5 54 12.78 15.5 28 37 1014.7 0 27.8 29.0 49.9 131.5 135.6 470.0
08/05 11:00 25.8 55 13.24 16.1 22 41 1014.8 0 28.7 29.7 51.5 135.9 141.0 489.0
08/05 10:50 25.9 56 13.56 16.5 19 24 1015 0 29.4 30.2 52.8 139.1 145.1 503.1
08/05 10:40 25.4 54 12.71 15.4 28 35 1015 0 27.6 29.0 49.7 131.0 134.9 467.5
08/05 10:30 25.6 54 12.86 15.6 22 35 1015 0 27.9 29.2 50.2 132.2 136.5 473.1
08/05 10:20 25.7 54 12.93 15.7 22 32 1014.9 0 28.1 29.2 50.4 132.8 137.2 475.6
08/05 10:10 25.5 54 12.78 15.5 28 41 1014.9 0 27.8 29.1 49.9 131.6 135.6 470.0
08/05 10:00 25.4 54 12.71 15.4 26 43 1014.9 0 27.6 29.0 49.7 131.0 134.9 467.5
08/05 09:50 25.2 52 12.11 14.9 28 39 1014.9 0 26.4 28.1 47.5 125.1 127.5 441.8
08/05 09:40 25 53 12.2 15 26 43 1014.9 0 26.6 28.3 47.9 126.3 129.0 446.9
08/05 09:30 25.1 53 12.27 15.1 26 46 1014.9 0 26.7 28.4 48.1 126.9 129.7 449.5
08/05 09:20 25.1 55 12.73 15.4 20 30 1014.8 0 27.7 29.1 50.0 131.7 135.6 470.1
08/05 09:10 24.9 53 12.13 14.7 30 43 1014.8 0 26.4 28.2 47.7 125.7 128.3 444.3
08/05 09:00 24.8 54 12.29 14.9 26 39 1014.7 0 26.8 28.5 48.4 127.5 130.5 452.0
08/05 08:50 24.6 55 12.38 15.2 22 26 1014.7 0 27.0 28.7 48.9 128.8 132.0 457.2
08/05 08:40 24.4 55 12.24 14.8 32 43 1014.7 0 26.7 28.5 48.4 127.7 130.5 452.0
08/05 08:30 24.2 55 12.1 14.6 24 43 1014.6 0 26.4 28.4 48.0 126.5 129.0 446.8
08/05 08:20 24 54 11.75 14.1 33 41 1014.5 0 25.7 27.9 46.8 123.2 124.8 432.2
08/05 08:10 23.8 54 11.62 13.9 26 46 1014.5 0 25.4 27.7 46.4 122.1 123.5 427.5
08/05 08:00 23.7 55 11.76 14.1 24 41 1014.4 0 25.7 28.0 47.0 123.7 125.4 434.3
08/05 07:50 23.5 55 11.63 13.9 22 26 1014.3 0 25.5 27.8 46.6 122.7 124.1 429.5
08/05 07:40 23.4 54 11.35 13.8 24 35 1014.3 0 24.9 27.4 45.5 119.9 120.6 417.5
08/05 07:30 23.4 54 11.35 13.6 28 43 1014.3 0 24.9 27.4 45.5 119.9 120.6 417.5
08/05 07:20 23.3 54 11.29 13.5 26 37 1014.2 0 24.8 27.4 45.4 119.4 120.0 415.4
08/05 07:10 23.3 54 11.29 13.5 30 44 1014.1 0 24.8 27.4 45.4 119.4 120.0 415.3
08/05 07:00 23.3 54 11.29 13.5 26 41 1014.1 0 24.8 27.4 45.4 119.4 120.0 415.3
08/05 06:50 23.4 54 11.35 13.6 26 33 1014 0 24.9 27.4 45.5 119.9 120.6 417.4
08/05 06:40 23.4 54 11.35 13.6 24 35 1013.9 0 24.9 27.4 45.5 119.9 120.6 417.4
08/05 06:30 23.6 52 11.06 13.2 28 43 1013.7 0 24.3 26.9 44.3 116.6 116.6 403.5
08/05 06:20 23.7 53 11.34 13.6 30 39 1013.6 0 24.9 27.3 45.3 119.3 120.0 415.3
08/05 06:10 23.7 52 11.12 13.3 28 37 1013.6 0 24.4 27.0 44.5 117.0 117.2 405.6
08/05 06:00 23.8 51 10.97 13.1 24 43 1013.6 0 24.1 26.7 43.8 115.3 115.2 398.5
08/05 05:50 23.8 52 11.19 13.4 22 35 1013.5 0 24.5 27.0 44.7 117.6 117.9 408.1
08/05 05:40 23.9 51 11.03 13.4 20 28 1013.5 0 24.2 26.8 44.0 115.8 115.8 400.6
08/05 05:30 24 50 10.88 13.2 28 46 1013.4 0 23.9 26.5 43.4 114.1 113.8 393.5
08/05 05:20 24 53 11.53 13.8 20 32 1013.3 0 25.2 27.5 45.9 120.7 121.9 422.0
08/05 05:10 24.2 52 11.44 13.7 26 32 1013.3 0 25.0 27.3 45.4 119.5 120.5 417.0
08/05 05:00 24 53 11.53 13.8 22 39 1013.3 0 25.2 27.5 45.9 120.7 121.9 422.0
08/05 04:50 24.3 52 11.51 13.8 24 33 1013.3 0 25.2 27.4 45.6 120.1 121.2 419.5
08/05 04:40 24.4 52 11.57 13.9 26 33 1013.3 0 25.3 27.4 45.8 120.5 121.8 421.7
08/05 04:30 24.6 51 11.48 13.8 28 46 1013.2 0 25.1 27.2 45.3 119.3 120.3 416.6
08/05 04:20 24.6 53 11.93 14.4 20 28 1013.3 0 26.0 27.9 47.0 123.9 126.0 436.5
08/05 04:10 24.7 52 11.77 14.2 26 35 1013.3 0 25.7 27.7 46.4 122.1 123.9 428.9
08/05 04:00 24.8 51 11.61 14 28 48 1013.3 0 25.4 27.4 45.7 120.4 121.7 421.3
08/05 03:50 25 48 11.05 13.5 30 39 1013.3 0 24.2 26.5 43.5 114.4 114.4 395.9
08/05 03:40 25 51 11.74 14.2 26 35 1013.4 0 25.6 27.5 46.1 121.4 123.0 426.0
08/05 03:30 24.9 53 12.13 14.7 26 41 1013.4 0 26.5 28.2 47.7 125.6 128.1 443.8
08/05 03:20 25 53 12.2 14.8 24 37 1013.4 0 26.6 28.2 47.9 126.1 128.8 446.4
08/05 03:10 25.2 51 11.87 14.6 22 32 1013.4 0 25.9 27.7 46.5 122.4 124.3 430.6
08/05 03:00 25.3 51 11.94 14.7 28 44 1013.4 0 26.0 27.7 46.7 123.0 125.1 433.2
08/05 02:50 25.3 53 12.41 15 24 35 1013.4 0 27.0 28.5 48.5 127.8 131.0 454.1
08/05 02:40 25.5 52 12.31 14.9 32 39 1013.4 0 26.8 28.3 48.0 126.5 129.4 448.5
08/05 02:30 25.4 52 12.24 14.8 24 37 1013.5 0 26.6 28.2 47.8 125.9 128.7 445.9
08/05 02:20 25.5 53 12.55 15.2 26 32 1013.5 0 27.3 28.6 48.9 129.0 132.5 459.2
08/05 02:10 25.6 53 12.62 15.3 26 39 1013.6 0 27.4 28.7 49.1 129.6 133.2 461.8
08/05 02:00 25.6 53 12.62 15.3 26 43 1013.6 0 27.4 28.7 49.1 129.6 133.2 461.8
08/05 01:50 25.5 55 13.02 15.8 20 30 1013.7 0 28.3 29.4 50.8 133.9 138.6 480.5
08/05 01:40 25.6 54 12.86 15.6 24 33 1013.8 0 27.9 29.1 50.1 132.1 136.3 472.7
08/05 01:30 25.7 54 12.93 15.7 24 39 1013.8 0 28.1 29.2 50.3 132.7 137.1 475.2
08/05 01:20 25.8 54 13 15.8 26 35 1013.8 0 28.2 29.3 50.5 133.2 137.8 477.8
08/05 01:10 25.9 55 13.32 16.2 26 41 1013.8 0 28.9 29.7 51.7 136.4 141.8 491.7
08/05 01:00 25.9 56 13.56 16.5 20 35 1013.8 0 29.4 30.1 52.7 139.0 144.9 502.7
08/05 00:50 25.9 58 14.04 17 22 30 1013.8 0 30.4 30.9 54.6 144.2 151.3 524.8
08/05 00:40 25.5 62 14.68 17.7 19 20 1013.9 0 31.8 32.1 57.6 152.0 160.7 557.8
08/05 00:30 24.6 70 15.75 18.8 13 22 1014 0 34.1 34.3 62.8 166.0 177.7 616.7
08/05 00:20 24.4 71 15.8 18.8 15 19 1014 0 34.2 34.5 63.2 167.0 178.9 620.8
08/05 00:10 24.6 71 15.98 19 11 15 1013.9 0 34.6 34.7 63.8 168.6 180.9 628.1
08/05 00:00 24.4 70 15.58 18.6 9 13 1013.9 0 33.8 34.1 62.2 164.4 175.7 609.8
07/05 23:50 24.3 70 15.49 18.5 11 13 1014 0 33.6 34.0 61.9 163.6 174.7 606.2
07/05 23:40 24.6 69 15.53 18.5 9 9 1014.1 0 33.6 33.9 61.9 163.4 174.6 605.9
07/05 23:30 24.7 67 15.16 18.2 11 15 1014.1 0 32.8 33.3 60.2 159.0 169.1 586.9
07/05 23:20 24.6 68 15.3 18.3 9 9 1014.1 0 33.1 33.5 60.9 160.8 171.3 594.5
07/05 23:10 24.6 68 15.3 18.3 11 15 1014.2 0 33.1 33.5 60.9 160.8 171.3 594.6
07/05 23:00 24.5 70 15.67 18.7 7 11 1014.3 0 33.9 34.2 62.6 165.3 176.8 613.7
07/05 22:50 24.4 71 15.8 18.8 7 7 1014.4 0 34.2 34.5 63.2 167.0 178.9 621.0
07/05 22:40 24 75 16.32 19.3 7 9 1014.3 0 35.4 35.6 65.9 174.0 187.4 650.5
07/05 22:30 24 75 16.32 19.3 7 9 1014.4 0 35.4 35.6 65.9 174.0 187.4 650.5
07/05 22:20 24.2 73 16.06 19.1 7 7 1014.4 0 34.8 35.0 64.5 170.5 183.1 635.7
07/05 22:10 24.1 72 15.75 18.7 7 9 1014.4 0 34.1 34.5 63.3 167.1 178.9 620.9
07/05 22:00 24 72 15.66 18.6 7 9 1014.4 0 34.0 34.4 62.9 166.3 177.8 617.2
07/05 21:50 23.8 75 16.13 19.1 7 7 1014.3 0 35.0 35.3 65.2 172.2 185.1 642.5
07/05 21:40 23.4 82 17.24 20.1 7 11 1014.4 0 37.4 37.5 70.6 186.6 202.6 703.4
07/05 21:30 23.2 86 17.88 20.7 7 9 1014.4 0 38.8 38.8 73.8 195.0 212.9 739.3
07/05 21:20 22.9 87 17.78 20.6 7 7 1014.4 0 38.6 38.8 73.6 194.6 212.3 736.9
07/05 21:10 23 87 17.88 20.7 7 7 1014.4 0 38.8 38.9 74.0 195.6 213.5 741.3
07/05 21:00 22.9 87 17.78 20.6 6 7 1014.3 0 38.6 38.8 73.6 194.5 212.2 736.8
07/05 20:50 23 86 17.68 20.5 6 7 1014.2 0 38.3 38.5 73.0 193.0 210.4 730.5
07/05 20:40 23.2 84 17.46 20.3 6 7 1014.2 0 37.9 38.0 71.8 189.8 206.5 716.8
07/05 20:30 23.5 83 17.55 20.4 7 9 1014.1 0 38.0 38.0 71.9 190.1 207.0 718.7
07/05 20:20 23.4 83 17.45 20.3 7 7 1014 0 37.8 37.9 71.5 189.1 205.7 714.3
07/05 20:10 23.2 82 17.05 20 7 9 1013.9 0 37.0 37.2 69.9 184.7 200.2 695.0
07/05 20:00 23.5 82 17.34 20.2 7 7 1013.9 0 37.6 37.6 70.9 187.5 203.8 707.5

Last Refresh: 08-May-2026 12:07:59

Bureau of Meteorology